Time;durP1;ratioP1;P1;durP2;ratioP2;P2;SDS_P1;SDS_P2;PMS_P1;PMS_P2;Temp;Humidity;BMP_temperature;BMP_pressure;BME280_temperature;BME280_humidity;BME280_pressure;Samples;Min_cycle;Max_cycle;Signal;HPM_P1;HPM_P2
2023/03/15 00:02:14;;;;;;;6.28;1.45;;;2.40;99.90;;;;;;6243238;23;20472;-89
2023/03/15 00:04:40;;;;;;;4.13;1.45;;;2.40;99.90;;;;;;6243859;23;20008;-88
2023/03/15 00:07:06;;;;;;;1.65;0.73;;;2.50;99.90;;;;;;6245270;23;19996;-88
2023/03/15 00:09:31;;;;;;;2.42;0.75;;;2.50;99.90;;;;;;6245070;23;20015;-89
2023/03/15 00:11:57;;;;;;;6.50;0.80;;;2.50;99.90;;;;;;6244853;22;20087;-87
2023/03/15 00:14:22;;;;;;;6.28;1.08;;;2.50;99.90;;;;;;6244767;23;20115;-88
2023/03/15 00:16:48;;;;;;;2.15;0.98;;;2.50;99.90;;;;;;6246475;23;20099;-88
2023/03/15 00:19:14;;;;;;;2.30;0.85;;;2.50;99.90;;;;;;6245365;23;20053;-88
2023/03/15 00:21:42;;;;;;;4.50;0.60;;;2.50;99.90;;;;;;6245447;23;20004;-88
2023/03/15 00:24:11;;;;;;;3.10;0.60;;;2.50;99.90;;;;;;6244509;23;20431;-88
2023/03/15 00:26:37;;;;;;;1.40;0.57;;;2.50;99.90;;;;;;6245385;23;20004;-88
2023/03/15 00:29:03;;;;;;;1.33;0.35;;;2.50;99.90;;;;;;6244833;23;20014;-88
2023/03/15 00:31:29;;;;;;;0.88;0.40;;;2.40;99.90;;;;;;6245565;23;20010;-88
2023/03/15 00:33:54;;;;;;;1.33;0.28;;;2.40;99.90;;;;;;6245814;23;20383;-88
2023/03/15 00:36:24;;;;;;;1.25;0.40;;;2.40;99.90;;;;;;6245056;23;20027;-88
2023/03/15 00:38:52;;;;;;;2.47;0.50;;;2.40;99.90;;;;;;6244301;22;20000;-89
2023/03/15 00:41:19;;;;;;;0.88;0.40;;;2.40;99.90;;;;;;6243648;23;20028;-89
2023/03/15 00:43:45;;;;;;;2.03;0.40;;;2.30;99.90;;;;;;6245262;23;20502;-88
2023/03/15 00:46:12;;;;;;;1.92;0.40;;;2.30;99.90;;;;;;6245032;23;20008;-88
2023/03/15 00:48:37;;;;;;;1.25;0.40;;;2.20;99.90;;;;;;6245375;23;20004;-88
2023/03/15 00:51:08;;;;;;;1.38;0.40;;;2.20;99.90;;;;;;6244323;23;20088;-87
2023/03/15 00:53:35;;;;;;;2.60;0.40;;;2.20;99.90;;;;;;6244960;23;20034;-88
2023/03/15 00:56:10;;;;;;;2.30;0.52;;;2.20;99.90;;;;;;6244316;23;20000;-88
2023/03/15 00:58:36;;;;;;;1.20;0.50;;;2.30;99.90;;;;;;6245219;23;20095;-88
2023/03/15 01:01:10;;;;;;;2.30;0.50;;;2.30;99.90;;;;;;6244521;23;20016;-88
2023/03/15 01:03:36;;;;;;;2.00;0.60;;;2.30;99.90;;;;;;6244529;23;20039;-87
2023/03/15 01:06:07;;;;;;;2.83;0.50;;;2.30;99.90;;;;;;6244289;23;19996;-87
2023/03/15 01:08:32;;;;;;;2.80;0.70;;;2.20;99.90;;;;;;6244982;23;20004;-88
2023/03/15 01:11:23;;;;;;;1.23;0.60;;;2.20;99.90;;;;;;6245071;23;20019;-87
2023/03/15 01:13:53;;;;;;;2.15;0.50;;;2.30;99.90;;;;;;6245311;23;20007;-87
2023/03/15 01:16:19;;;;;;;2.38;0.50;;;2.30;99.90;;;;;;6243742;23;20038;-88
2023/03/15 01:18:44;;;;;;;1.52;0.55;;;2.20;99.90;;;;;;6244676;23;20090;-88
2023/03/15 01:21:12;;;;;;;2.25;0.50;;;2.30;99.90;;;;;;6244511;23;20027;-88
2023/03/15 01:23:38;;;;;;;1.80;0.50;;;2.30;99.90;;;;;;6244008;23;20016;-87
2023/03/15 01:26:06;;;;;;;2.53;0.68;;;2.30;99.90;;;;;;6243647;23;20000;-87
2023/03/15 01:28:31;;;;;;;2.45;1.08;;;2.30;99.90;;;;;;6244500;23;20004;-87
2023/03/15 01:30:57;;;;;;;2.80;0.95;;;2.30;99.90;;;;;;6246053;22;20042;-88
2023/03/15 01:33:23;;;;;;;2.42;1.25;;;2.40;99.90;;;;;;6243867;23;20011;-88
2023/03/15 01:36:01;;;;;;;6.20;1.58;;;2.30;99.90;;;;;;6246065;22;20000;-88
2023/03/15 01:38:27;;;;;;;5.82;1.85;;;2.30;99.90;;;;;;6243390;22;20042;-88
2023/03/15 01:40:52;;;;;;;5.15;2.20;;;2.30;99.90;;;;;;6244630;23;20035;-88
2023/03/15 01:43:20;;;;;;;3.03;1.70;;;2.30;99.90;;;;;;6245808;23;20015;-89
2023/03/15 01:45:52;;;;;;;5.13;1.48;;;2.30;99.90;;;;;;6244086;23;20008;-88
2023/03/15 01:48:22;;;;;;;3.47;1.45;;;2.30;99.90;;;;;;6244179;23;20004;-88
2023/03/15 01:50:48;;;;;;;4.70;1.50;;;2.30;99.90;;;;;;6244264;22;20335;-88
2023/03/15 01:53:14;;;;;;;5.32;1.67;;;2.30;99.90;;;;;;6244551;23;20004;-88
2023/03/15 01:55:40;;;;;;;3.10;1.33;;;2.20;99.90;;;;;;6244373;23;20496;-88
2023/03/15 01:58:07;;;;;;;2.25;1.08;;;2.20;99.90;;;;;;6244315;23;20008;-88
2023/03/15 02:00:32;;;;;;;3.13;0.93;;;2.10;99.90;;;;;;6244220;23;20000;-88
2023/03/15 02:03:02;;;;;;;2.17;0.70;;;2.10;99.90;;;;;;6244065;23;20485;-88
2023/03/15 02:05:32;;;;;;;2.58;0.82;;;2.00;99.90;;;;;;6244236;23;20031;-88
2023/03/15 02:08:00;;;;;;;1.77;0.63;;;2.00;99.90;;;;;;6244711;23;20098;-88
2023/03/15 02:10:31;;;;;;;3.58;0.57;;;2.00;99.90;;;;;;6252907;23;20063;-89
2023/03/15 02:12:58;;;;;;;3.45;0.60;;;1.90;99.90;;;;;;6248587;23;19997;-89
2023/03/15 02:15:24;;;;;;;1.88;0.60;;;1.90;99.90;;;;;;6244040;23;20484;-89
2023/03/15 02:17:50;;;;;;;1.90;0.60;;;1.90;99.90;;;;;;6244020;22;20000;-89
2023/03/15 02:20:39;;;;;;;3.22;0.50;;;2.00;99.90;;;;;;6243960;23;20087;-89
2023/03/15 02:23:08;;;;;;;3.60;0.50;;;2.00;99.90;;;;;;6244294;23;20008;-89
2023/03/15 02:26:09;;;;;;;2.13;0.52;;;2.00;99.90;;;;;;6243383;23;20366;-90
2023/03/15 02:28:35;;;;;;;2.35;0.52;;;2.00;99.90;;;;;;6243412;23;20000;-89
2023/03/15 02:31:00;;;;;;;3.13;1.33;;;2.00;99.90;;;;;;6245436;22;20419;-90
2023/03/15 02:33:35;;;;;;;1.98;0.80;;;2.00;99.90;;;;;;6241404;23;20011;-90
2023/03/15 02:36:18;;;;;;;1.58;0.55;;;2.00;99.90;;;;;;6243484;23;20004;-89
2023/03/15 02:38:43;;;;;;;1.73;0.70;;;2.00;99.90;;;;;;6244185;23;20005;-89
2023/03/15 02:41:10;;;;;;;2.40;0.60;;;2.00;99.90;;;;;;6243310;23;20019;-89
2023/03/15 02:43:37;;;;;;;1.10;0.50;;;2.00;99.90;;;;;;6243812;23;20430;-90
2023/03/15 02:46:04;;;;;;;1.88;0.65;;;2.00;99.90;;;;;;6242744;23;20008;-88
2023/03/15 02:48:32;;;;;;;2.65;0.90;;;2.00;99.90;;;;;;6243433;23;20004;-89
2023/03/15 02:50:58;;;;;;;2.08;0.90;;;2.00;99.90;;;;;;6245169;22;19996;-89
2023/03/15 02:53:23;;;;;;;1.92;0.60;;;2.00;99.90;;;;;;6244519;23;20470;-89
2023/03/15 02:55:50;;;;;;;1.52;0.80;;;2.00;99.90;;;;;;6245084;23;20429;-89
2023/03/15 02:58:16;;;;;;;1.50;0.60;;;1.90;99.90;;;;;;6243192;23;20058;-89
2023/03/15 03:00:41;;;;;;;3.70;0.70;;;1.90;99.90;;;;;;6243919;23;20004;-89
2023/03/15 03:03:07;;;;;;;1.45;0.57;;;1.90;99.90;;;;;;6243295;23;20008;-90
2023/03/15 03:05:33;;;;;;;1.75;0.55;;;1.90;99.90;;;;;;6244913;22;19997;-88
2023/03/15 03:07:58;;;;;;;1.92;0.70;;;1.80;99.90;;;;;;6244852;23;20012;-89
2023/03/15 03:10:25;;;;;;;1.52;0.63;;;1.80;99.90;;;;;;6243514;23;20075;-89
2023/03/15 03:12:52;;;;;;;3.15;0.75;;;1.70;99.90;;;;;;6244833;22;19996;-89
2023/03/15 03:15:18;;;;;;;2.63;0.73;;;1.70;99.90;;;;;;6243002;23;20079;-90
2023/03/15 03:17:44;;;;;;;2.25;0.90;;;1.70;99.90;;;;;;6243788;22;20004;-89
2023/03/15 03:20:12;;;;;;;2.38;1.00;;;1.70;99.90;;;;;;6242654;23;20410;-89
2023/03/15 03:22:39;;;;;;;2.83;1.17;;;1.60;99.90;;;;;;6243711;23;20486;-89
2023/03/15 03:25:07;;;;;;;2.50;1.20;;;1.60;99.90;;;;;;6242257;23;20007;-89
2023/03/15 03:27:36;;;;;;;3.22;1.35;;;1.60;99.90;;;;;;6243255;23;20004;-89
2023/03/15 03:30:04;;;;;;;4.45;1.23;;;1.50;99.90;;;;;;6243327;23;19996;-89
2023/03/15 03:32:30;;;;;;;3.63;1.90;;;1.50;99.90;;;;;;6244429;22;20001;-89
2023/03/15 03:34:56;;;;;;;4.85;1.70;;;1.40;99.90;;;;;;6243824;23;20422;-89
2023/03/15 03:37:21;;;;;;;5.40;2.15;;;1.40;99.90;;;;;;6243016;23;19996;-89
2023/03/15 03:39:47;;;;;;;5.13;2.55;;;1.40;99.90;;;;;;6244360;23;20010;-89
2023/03/15 03:42:13;;;;;;;4.38;2.28;;;1.40;99.90;;;;;;6244490;23;20023;-88
2023/03/15 03:44:39;;;;;;;5.30;2.85;;;1.40;99.90;;;;;;6245625;23;20328;-89
2023/03/15 03:47:05;;;;;;;7.47;3.15;;;1.40;99.90;;;;;;6244992;23;20008;-89
2023/03/15 03:49:31;;;;;;;5.82;2.90;;;1.40;99.90;;;;;;6245789;23;20012;-89
2023/03/15 03:51:59;;;;;;;6.53;3.40;;;1.40;99.90;;;;;;6245492;23;20518;-89
2023/03/15 03:54:24;;;;;;;6.13;3.28;;;1.40;99.90;;;;;;6245309;23;20004;-88
2023/03/15 03:56:50;;;;;;;6.85;3.35;;;1.30;99.90;;;;;;6245132;23;20005;-88
2023/03/15 03:59:15;;;;;;;5.40;2.80;;;1.30;99.90;;;;;;6243799;23;20014;-88
2023/03/15 04:01:41;;;;;;;7.18;3.70;;;1.30;99.90;;;;;;6245043;23;20001;-89
2023/03/15 04:04:07;;;;;;;5.68;3.05;;;1.30;99.90;;;;;;6245529;23;20016;-89
2023/03/15 04:06:33;;;;;;;8.05;3.38;;;1.30;99.90;;;;;;6245767;23;20061;-89
2023/03/15 04:08:58;;;;;;;7.38;4.13;;;1.30;99.90;;;;;;6244957;23;20008;-88
2023/03/15 04:11:25;;;;;;;7.45;4.57;;;1.20;99.90;;;;;;6245017;23;20038;-88
2023/03/15 04:13:52;;;;;;;8.95;4.05;;;1.20;99.90;;;;;;6244707;23;20011;-89
2023/03/15 04:16:18;;;;;;;7.97;4.13;;;1.20;99.90;;;;;;6244704;23;20027;-89
2023/03/15 04:18:44;;;;;;;10.55;4.25;;;1.10;99.90;;;;;;6245615;22;20093;-88
2023/03/15 04:21:10;;;;;;;14.05;4.68;;;1.10;99.90;;;;;;6244982;23;20040;-89
2023/03/15 04:23:36;;;;;;;9.23;4.32;;;1.10;99.90;;;;;;6244876;22;20020;-88
2023/03/15 04:26:04;;;;;;;10.85;5.28;;;1.10;99.90;;;;;;6243974;23;20007;-88
2023/03/15 04:28:30;;;;;;;11.00;4.68;;;1.10;99.90;;;;;;6244868;23;20431;-88
2023/03/15 04:30:57;;;;;;;9.85;4.88;;;1.10;99.90;;;;;;6245270;23;20000;-88
2023/03/15 04:33:27;;;;;;;9.77;4.70;;;1.10;99.90;;;;;;6244788;23;20000;-88
2023/03/15 04:35:53;;;;;;;8.18;4.72;;;1.10;99.90;;;;;;6245572;23;20338;-88
2023/03/15 04:38:25;;;;;;;9.75;4.53;;;1.10;99.90;;;;;;6245011;23;20040;-88
2023/03/15 04:40:52;;;;;;;9.90;5.32;;;1.10;99.90;;;;;;6245098;23;20012;-88
2023/03/15 04:43:17;;;;;;;9.98;5.15;;;1.00;99.90;;;;;;6245628;23;20023;-89
2023/03/15 04:45:43;;;;;;;9.73;5.00;;;1.00;99.90;;;;;;6224339;23;20006;-88
2023/03/15 04:48:09;;;;;;;11.82;5.80;;;1.00;99.90;;;;;;6223745;23;20091;-88
2023/03/15 04:50:35;;;;;;;9.80;5.60;;;1.00;99.90;;;;;;6246758;23;20047;-88
2023/03/15 04:53:00;;;;;;;12.32;5.60;;;0.90;99.90;;;;;;6219272;23;20008;-88
2023/03/15 04:55:26;;;;;;;15.15;5.90;;;0.90;99.90;;;;;;6246722;23;20004;-88
2023/03/15 04:57:52;;;;;;;12.13;6.05;;;0.90;99.90;;;;;;6219020;23;20000;-88
2023/03/15 05:00:17;;;;;;;15.02;6.15;;;0.90;99.90;;;;;;6246317;23;20011;-88
2023/03/15 05:02:43;;;;;;;14.27;5.35;;;0.80;99.90;;;;;;6219649;23;20407;-88
2023/03/15 05:05:10;;;;;;;13.13;5.90;;;0.80;99.90;;;;;;6219613;23;20023;-88
2023/03/15 05:07:36;;;;;;;13.63;6.63;;;0.90;99.90;;;;;;6219134;23;20026;-88
2023/03/15 05:10:03;;;;;;;14.60;6.28;;;0.90;99.90;;;;;;6218910;23;20004;-88
2023/03/15 05:12:30;;;;;;;11.93;5.88;;;0.80;99.90;;;;;;6219426;23;20000;-89
2023/03/15 05:14:55;;;;;;;12.15;6.63;;;0.80;99.90;;;;;;6246159;23;20423;-88
2023/03/15 05:17:21;;;;;;;11.98;6.38;;;0.80;99.90;;;;;;6218832;23;20008;-88
2023/03/15 05:19:50;;;;;;;10.80;5.95;;;0.80;99.90;;;;;;6219580;23;20007;-88
2023/03/15 05:22:16;;;;;;;14.90;6.50;;;0.70;99.90;;;;;;6218548;23;20431;-88
2023/03/15 05:24:42;;;;;;;13.38;6.53;;;0.80;99.90;;;;;;6245784;22;20005;-88
2023/03/15 05:27:08;;;;;;;13.80;5.80;;;0.70;99.90;;;;;;6219005;23;20000;-88
2023/03/15 05:29:34;;;;;;;16.60;6.65;;;0.80;99.90;;;;;;6219211;23;20004;-88
2023/03/15 05:32:03;;;;;;;14.82;7.13;;;0.70;99.90;;;;;;6219412;23;20000;-88
2023/03/15 05:34:28;;;;;;;15.63;6.68;;;0.70;99.90;;;;;;6219404;23;20000;-90
2023/03/15 05:36:54;;;;;;;13.23;6.78;;;0.70;99.90;;;;;;6219316;23;20061;-89
2023/03/15 05:39:21;;;;;;;12.50;6.82;;;0.70;99.90;;;;;;6244828;23;20415;-89
2023/03/15 05:41:47;;;;;;;16.20;7.22;;;0.70;99.90;;;;;;6230613;23;20039;-88
2023/03/15 05:44:12;;;;;;;16.15;7.35;;;0.70;99.90;;;;;;6245070;23;20146;-88
2023/03/15 05:46:38;;;;;;;13.07;6.45;;;0.70;99.90;;;;;;6243834;23;20015;-88
2023/03/15 05:49:03;;;;;;;13.32;5.97;;;0.70;99.90;;;;;;6243918;23;20087;-88
2023/03/15 05:51:29;;;;;;;11.52;6.53;;;0.60;99.90;;;;;;6244336;23;20000;-89
2023/03/15 05:53:55;;;;;;;14.70;6.78;;;0.60;99.90;;;;;;6242641;23;20000;-89
2023/03/15 05:56:20;;;;;;;14.05;7.03;;;0.50;99.90;;;;;;6243210;23;20362;-88
2023/03/15 05:58:46;;;;;;;16.23;7.20;;;0.50;99.90;;;;;;6243820;22;20000;-88
2023/03/15 06:01:11;;;;;;;12.10;6.95;;;0.50;99.90;;;;;;6244287;23;20102;-88
2023/03/15 06:03:37;;;;;;;15.48;7.65;;;0.60;99.90;;;;;;6243584;23;20016;-88
2023/03/15 06:06:03;;;;;;;17.35;7.60;;;0.60;99.90;;;;;;6244059;23;20082;-89
2023/03/15 06:08:29;;;;;;;15.88;8.10;;;0.60;99.90;;;;;;6244077;23;20008;-88
2023/03/15 06:10:54;;;;;;;16.38;7.60;;;0.60;99.90;;;;;;6244379;22;20288;-88
2023/03/15 06:13:20;;;;;;;15.85;7.78;;;0.70;99.90;;;;;;6245682;23;20008;-88
2023/03/15 06:15:46;;;;;;;18.63;8.35;;;0.70;99.90;;;;;;6248417;23;20007;-88
2023/03/15 06:18:12;;;;;;;19.33;9.05;;;0.70;99.90;;;;;;6246832;23;20011;-89
2023/03/15 06:20:38;;;;;;;16.55;7.15;;;0.80;99.90;;;;;;6246941;23;20007;-88
2023/03/15 06:23:04;;;;;;;15.93;7.88;;;0.80;99.90;;;;;;6243978;23;20011;-88
2023/03/15 06:25:29;;;;;;;15.85;7.22;;;0.80;99.90;;;;;;6243295;23;20000;-88
2023/03/15 06:27:55;;;;;;;18.60;8.73;;;0.90;99.90;;;;;;6245094;23;20021;-88
2023/03/15 06:30:20;;;;;;;19.00;7.93;;;0.80;99.90;;;;;;6245242;23;20024;-89
2023/03/15 06:32:46;;;;;;;16.52;7.90;;;0.90;99.90;;;;;;6246221;23;20000;-89
2023/03/15 06:35:12;;;;;;;17.45;7.90;;;0.90;99.90;;;;;;6244474;23;20008;-88
2023/03/15 06:37:37;;;;;;;18.05;8.10;;;0.90;99.90;;;;;;6247091;23;20334;-89
2023/03/15 06:40:06;;;;;;;17.10;7.45;;;0.90;99.90;;;;;;6244619;23;20000;-88
2023/03/15 06:42:32;;;;;;;16.52;7.75;;;1.00;99.90;;;;;;6244347;23;20027;-89
2023/03/15 06:44:58;;;;;;;18.20;7.85;;;1.00;99.90;;;;;;6243259;22;20458;-88
2023/03/15 06:47:23;;;;;;;21.70;8.02;;;1.00;99.90;;;;;;6243809;23;20004;-88
2023/03/15 06:49:49;;;;;;;16.08;8.05;;;1.00;99.90;;;;;;6243147;23;20007;-88
2023/03/15 06:52:15;;;;;;;19.92;8.73;;;1.10;99.90;;;;;;6243191;23;20018;-89
2023/03/15 06:54:41;;;;;;;18.90;8.32;;;1.10;99.90;;;;;;6243118;23;20046;-89
2023/03/15 06:57:06;;;;;;;20.60;8.35;;;1.20;99.90;;;;;;6243106;23;20008;-88
2023/03/15 06:59:32;;;;;;;17.92;8.80;;;1.30;99.90;;;;;;6242919;23;20000;-88
2023/03/15 07:01:57;;;;;;;20.45;10.13;;;1.40;99.90;;;;;;6242275;22;20087;-87
2023/03/15 07:04:23;;;;;;;21.13;9.15;;;1.30;99.90;;;;;;6242739;23;20019;-89
2023/03/15 07:06:49;;;;;;;19.42;9.25;;;1.40;99.90;;;;;;6242321;23;20000;-89
2023/03/15 07:09:15;;;;;;;19.65;9.23;;;1.40;99.90;;;;;;6242035;23;20011;-88
2023/03/15 07:11:40;;;;;;;19.77;8.93;;;1.50;99.90;;;;;;6242113;23;20070;-88
2023/03/15 07:14:06;;;;;;;16.02;7.97;;;1.50;99.90;;;;;;6241929;23;20744;-87
2023/03/15 07:16:31;;;;;;;18.42;8.98;;;1.60;99.90;;;;;;6244118;23;20004;-88
2023/03/15 07:18:58;;;;;;;16.83;7.50;;;1.70;99.90;;;;;;6246330;23;20027;-87
2023/03/15 07:21:24;;;;;;;18.33;8.35;;;1.80;99.90;;;;;;6246565;23;20004;-88
2023/03/15 07:23:50;;;;;;;13.73;7.40;;;1.80;99.90;;;;;;6243828;23;20445;-88
2023/03/15 07:26:16;;;;;;;15.02;7.57;;;1.90;99.90;;;;;;6242720;23;19996;-87
2023/03/15 07:28:43;;;;;;;15.65;7.57;;;2.00;99.90;;;;;;6241564;23;20012;-88
2023/03/15 07:31:10;;;;;;;15.10;7.32;;;2.00;99.90;;;;;;6241524;23;20011;-88
2023/03/15 07:33:36;;;;;;;17.25;7.70;;;2.10;99.90;;;;;;6244319;22;20502;-88
2023/03/15 07:36:03;;;;;;;14.05;7.47;;;2.10;99.90;;;;;;6238093;23;20004;-89
2023/03/15 07:38:29;;;;;;;12.00;5.82;;;2.20;99.90;;;;;;6241047;23;20015;-89
2023/03/15 07:40:55;;;;;;;11.98;6.32;;;2.30;99.90;;;;;;6242303;23;20097;-88
2023/03/15 07:43:21;;;;;;;17.50;6.88;;;2.30;99.90;;;;;;6243227;22;20035;-89
2023/03/15 07:45:47;;;;;;;13.52;5.63;;;2.40;99.90;;;;;;6242634;23;20004;-88
2023/03/15 07:48:15;;;;;;;17.08;7.10;;;2.40;99.90;;;;;;6242562;23;20411;-88
2023/03/15 07:50:41;;;;;;;14.38;6.47;;;2.50;99.90;;;;;;6243181;23;20004;-87
2023/03/15 07:53:07;;;;;;;16.95;7.50;;;2.60;99.90;;;;;;6240763;23;20474;-88
2023/03/15 07:55:34;;;;;;;17.63;8.05;;;2.60;99.90;;;;;;6240302;22;20000;-89
2023/03/15 07:58:00;;;;;;;17.77;7.53;;;2.70;99.90;;;;;;6241103;23;20008;-89
2023/03/15 08:00:26;;;;;;;12.82;6.60;;;2.80;99.90;;;;;;6241291;23;20005;-88
2023/03/15 08:02:51;;;;;;;19.27;7.25;;;2.80;99.90;;;;;;6242000;23;20008;-89
2023/03/15 08:05:18;;;;;;;16.65;6.57;;;2.90;99.90;;;;;;6240933;23;20008;-88
2023/03/15 08:07:47;;;;;;;14.30;6.60;;;3.00;99.90;;;;;;6242134;23;20004;-87
2023/03/15 08:10:14;;;;;;;15.52;6.93;;;3.10;99.90;;;;;;6239616;23;20010;-88
2023/03/15 08:12:41;;;;;;;15.98;5.82;;;3.10;99.90;;;;;;6242913;23;20003;-89
2023/03/15 08:15:12;;;;;;;12.40;5.57;;;3.20;99.90;;;;;;6242158;23;20023;-88
2023/03/15 08:17:39;;;;;;;12.80;4.72;;;3.20;99.90;;;;;;6243337;23;20030;-88
2023/03/15 08:20:06;;;;;;;18.27;5.68;;;3.30;99.90;;;;;;6241577;23;20004;-88
2023/03/15 08:22:32;;;;;;;11.70;5.57;;;3.30;99.90;;;;;;6242638;23;20008;-88
2023/03/15 08:24:57;;;;;;;10.63;4.50;;;3.40;99.90;;;;;;6242197;23;20099;-87
2023/03/15 08:27:26;;;;;;;13.20;4.07;;;3.40;99.90;;;;;;6243752;23;20077;-88
2023/03/15 08:29:51;;;;;;;14.35;5.20;;;3.50;99.90;;;;;;6244577;23;20034;-88
2023/03/15 08:32:18;;;;;;;16.23;5.00;;;3.60;99.90;;;;;;6243349;23;19993;-87
2023/03/15 08:34:44;;;;;;;13.98;4.25;;;3.70;99.90;;;;;;6243890;23;20008;-87
2023/03/15 08:37:10;;;;;;;11.95;4.15;;;3.70;99.90;;;;;;6244720;23;20426;-87
2023/03/15 08:39:39;;;;;;;11.25;4.50;;;3.80;99.90;;;;;;6243760;23;20053;-88
2023/03/15 08:42:05;;;;;;;11.00;4.80;;;3.90;99.90;;;;;;6243328;23;20450;-87
2023/03/15 08:44:31;;;;;;;11.60;4.10;;;4.00;99.90;;;;;;6243623;23;20019;-87
2023/03/15 08:46:57;;;;;;;11.98;3.78;;;4.10;99.90;;;;;;6242259;22;20004;-87
2023/03/15 08:49:23;;;;;;;11.35;3.47;;;4.20;99.90;;;;;;6242027;22;20008;-88
2023/03/15 08:51:49;;;;;;;9.65;3.53;;;4.30;99.90;;;;;;6241742;23;20421;-87
2023/03/15 08:54:14;;;;;;;16.73;3.83;;;4.40;99.90;;;;;;6242213;23;20001;-87
2023/03/15 08:56:41;;;;;;;8.43;3.00;;;4.40;99.90;;;;;;6243155;22;20011;-87
2023/03/15 08:59:09;;;;;;;15.13;3.65;;;4.50;99.90;;;;;;6241460;23;20000;-85
2023/03/15 09:01:35;;;;;;;11.25;2.78;;;4.50;99.90;;;;;;6239748;22;20015;-87
2023/03/15 09:04:01;;;;;;;6.60;2.90;;;4.60;99.90;;;;;;6241808;22;20016;-86
2023/03/15 09:06:27;;;;;;;10.70;2.67;;;4.70;99.90;;;;;;6240261;22;20438;-86
2023/03/15 09:08:53;;;;;;;11.98;2.90;;;4.70;99.90;;;;;;6242839;22;20008;-86
2023/03/15 09:11:19;;;;;;;11.55;3.28;;;4.70;99.90;;;;;;6237874;22;20200;-87
2023/03/15 09:13:45;;;;;;;10.82;2.95;;;4.90;99.90;;;;;;6242010;22;20000;-86
2023/03/15 09:16:11;;;;;;;9.82;2.80;;;4.90;99.90;;;;;;6239224;22;20098;-87
2023/03/15 09:18:36;;;;;;;9.52;2.10;;;4.90;99.90;;;;;;6239140;23;20481;-86
2023/03/15 09:21:03;;;;;;;8.65;2.60;;;5.00;99.90;;;;;;6239104;23;20610;-86
2023/03/15 09:23:29;;;;;;;6.70;2.10;;;5.00;99.90;;;;;;6241517;23;20042;-86
2023/03/15 09:25:54;;;;;;;8.63;1.52;;;5.10;99.90;;;;;;6243735;23;20495;-86
2023/03/15 09:28:20;;;;;;;13.10;1.55;;;5.10;99.90;;;;;;6240798;23;20108;-87
2023/03/15 09:30:45;;;;;;;7.53;1.20;;;5.20;99.90;;;;;;6240364;23;20046;-85
2023/03/15 09:33:13;;;;;;;10.70;1.58;;;5.20;99.90;;;;;;6236768;22;20434;-87
2023/03/15 09:35:39;;;;;;;10.75;1.20;;;5.30;99.90;;;;;;6244139;23;20024;-87
2023/03/15 09:38:05;;;;;;;7.28;1.13;;;5.40;99.90;;;;;;6240944;23;20506;-86
2023/03/15 09:40:43;;;;;;;15.25;1.17;;;5.40;99.90;;;;;;6239269;22;20042;-86
2023/03/15 09:43:38;;;;;;;6.38;0.82;;;5.40;99.90;;;;;;6217248;23;20020;-86
2023/03/15 09:46:26;;;;;;;9.65;0.90;;;5.40;99.90;;;;;;6218468;23;20434;-85
2023/03/15 09:49:04;;;;;;;5.72;0.60;;;5.50;99.90;;;;;;6242400;23;20000;-85
2023/03/15 09:51:40;;;;;;;9.52;0.85;;;5.60;99.90;;;;;;6215555;23;20063;-85
2023/03/15 09:54:14;;;;;;;5.78;0.68;;;5.60;99.90;;;;;;6215798;23;20034;-86
2023/03/15 09:57:01;;;;;;;4.38;0.93;;;5.70;99.90;;;;;;6243125;22;20019;-87
2023/03/15 09:59:50;;;;;;;9.70;1.05;;;5.70;99.90;;;;;;6216405;23;20417;-85
2023/03/15 10:02:22;;;;;;;7.50;0.60;;;5.80;99.90;;;;;;6217700;23;20369;-86
2023/03/15 10:04:50;;;;;;;5.80;0.65;;;5.90;99.90;;;;;;6217122;23;20115;-85
2023/03/15 10:07:16;;;;;;;5.95;0.77;;;5.90;99.90;;;;;;6215034;22;20031;-86
2023/03/15 10:09:42;;;;;;;7.00;0.88;;;5.90;99.90;;;;;;6214882;23;20012;-85
2023/03/15 10:12:10;;;;;;;3.60;0.50;;;5.90;99.90;;;;;;6216567;23;20083;-86
2023/03/15 10:15:24;;;;;;;7.03;0.90;;;5.90;99.90;;;;;;6245079;23;20007;-85
2023/03/15 10:18:18;;;;;;;4.68;0.55;;;6.10;99.90;;;;;;6195750;23;20032;-85
2023/03/15 10:20:51;;;;;;;7.35;0.50;;;6.10;99.90;;;;;;6216762;23;20011;-85
2023/03/15 10:23:22;;;;;;;5.82;1.05;;;6.10;99.90;;;;;;6217158;23;20450;-86
2023/03/15 10:25:50;;;;;;;3.05;0.40;;;6.20;99.90;;;;;;6217108;23;20107;-85
2023/03/15 10:28:22;;;;;;;4.32;0.55;;;6.20;99.90;;;;;;6217611;23;20062;-84
2023/03/15 10:30:50;;;;;;;9.90;0.50;;;6.30;99.90;;;;;;6217954;23;20011;-84
2023/03/15 10:33:21;;;;;;;9.80;0.40;;;6.30;99.90;;;;;;6215129;23;20457;-85
2023/03/15 10:35:47;;;;;;;6.28;0.50;;;6.40;99.90;;;;;;6218221;23;20419;-85
2023/03/15 10:38:19;;;;;;;4.72;0.95;;;6.50;99.90;;;;;;6213730;23;20005;-86
2023/03/15 10:40:50;;;;;;;9.93;0.63;;;6.50;99.90;;;;;;6244492;22;20004;-85
2023/03/15 10:43:17;;;;;;;5.85;0.80;;;6.50;99.90;;;;;;6216909;23;20048;-86
2023/03/15 10:45:46;;;;;;;7.82;0.63;;;6.40;99.90;;;;;;6218323;23;20011;-86
2023/03/15 10:48:11;;;;;;;6.93;0.50;;;6.40;99.90;;;;;;6216622;23;20008;-86
2023/03/15 10:50:38;;;;;;;5.95;0.30;;;6.40;99.90;;;;;;6244377;23;20067;-86
2023/03/15 10:53:10;;;;;;;10.90;0.50;;;6.50;99.90;;;;;;6216621;23;20008;-86
2023/03/15 10:55:43;;;;;;;8.25;0.50;;;6.40;99.90;;;;;;6244660;23;20011;-86
2023/03/15 10:58:40;;;;;;;7.35;0.60;;;6.40;99.90;;;;;;6216968;23;20015;-85
2023/03/15 11:01:10;;;;;;;6.65;0.50;;;6.50;99.90;;;;;;6214980;23;20030;-85
2023/03/15 11:03:37;;;;;;;6.72;0.40;;;6.70;99.90;;;;;;6217091;23;20099;-86
2023/03/15 11:06:18;;;;;;;5.60;0.40;;;6.80;99.90;;;;;;6216655;23;20445;-84
2023/03/15 11:08:44;;;;;;;9.88;0.88;;;6.90;99.90;;;;;;6216385;23;20523;-84
2023/03/15 11:11:10;;;;;;;5.53;0.32;;;7.00;99.90;;;;;;6214227;23;20028;-85
2023/03/15 11:13:40;;;;;;;4.68;0.40;;;7.20;99.90;;;;;;6216666;23;20016;-85
2023/03/15 11:16:12;;;;;;;5.30;0.30;;;7.30;99.90;;;;;;6217255;23;20042;-85
2023/03/15 11:19:00;;;;;;;7.57;0.40;;;7.40;99.90;;;;;;6217802;23;20007;-85
2023/03/15 11:21:34;;;;;;;4.78;0.60;;;7.40;99.90;;;;;;6216724;23;20008;-86
2023/03/15 11:24:04;;;;;;;5.68;0.35;;;7.40;99.90;;;;;;6214445;23;20023;-85
2023/03/15 11:26:39;;;;;;;6.50;0.30;;;7.20;99.90;;;;;;6212731;22;20003;-85
2023/03/15 11:29:25;;;;;;;5.25;0.47;;;7.00;99.90;;;;;;6216075;23;20094;-85
2023/03/15 11:31:51;;;;;;;5.35;0.40;;;6.90;99.90;;;;;;6218113;23;20418;-86
2023/03/15 11:34:32;;;;;;;7.68;0.50;;;6.80;99.90;;;;;;6216897;23;20019;-86
2023/03/15 11:37:03;;;;;;;7.00;0.40;;;6.70;99.90;;;;;;6214765;23;19997;-87
2023/03/15 11:39:55;;;;;;;4.22;0.43;;;6.60;99.90;;;;;;6217710;23;20062;-87
2023/03/15 11:42:28;;;;;;;12.18;1.17;;;6.60;99.90;;;;;;6208535;22;20126;-87
2023/03/15 11:45:00;;;;;;;6.57;0.60;;;6.70;99.90;;;;;;6242072;23;20015;-86
2023/03/15 11:47:52;;;;;;;7.25;0.63;;;6.90;99.90;;;;;;6242810;23;20004;-86
2023/03/15 11:50:18;;;;;;;4.43;0.50;;;7.10;99.90;;;;;;6241653;23;20008;-86
2023/03/15 11:52:48;;;;;;;6.28;0.50;;;7.20;99.90;;;;;;6242689;23;20024;-86
2023/03/15 11:55:27;;;;;;;7.05;0.43;;;7.40;99.90;;;;;;6242300;23;20004;-86
2023/03/15 11:57:54;;;;;;;4.75;0.43;;;7.50;99.90;;;;;;6240755;22;20050;-86
2023/03/15 12:00:27;;;;;;;6.40;0.40;;;7.50;99.90;;;;;;6240854;22;20000;-86
2023/03/15 12:02:55;;;;;;;7.50;0.50;;;7.50;99.90;;;;;;6243425;22;20004;-86
2023/03/15 12:05:44;;;;;;;6.72;0.50;;;7.40;99.90;;;;;;6247455;22;20068;-86
2023/03/15 12:08:23;;;;;;;5.47;0.40;;;7.50;99.90;;;;;;6243385;22;20001;-86
2023/03/15 12:10:50;;;;;;;3.90;0.30;;;7.60;99.90;;;;;;6244899;23;20077;-86
2023/03/15 12:13:23;;;;;;;5.00;0.40;;;7.70;99.90;;;;;;6242807;22;20007;-86
2023/03/15 12:15:49;;;;;;;5.15;0.40;;;7.80;99.90;;;;;;6244206;23;20015;-86
2023/03/15 12:18:18;;;;;;;3.63;0.50;;;7.90;99.90;;;;;;6243192;23;20050;-85
2023/03/15 12:21:07;;;;;;;4.30;0.40;;;8.00;99.90;;;;;;6241910;23;20000;-85
2023/03/15 12:24:00;;;;;;;9.02;0.82;;;8.10;99.90;;;;;;6243477;23;20442;-85
2023/03/15 12:26:33;;;;;;;4.65;0.40;;;8.20;99.90;;;;;;6243807;22;19996;-85
2023/03/15 12:29:07;;;;;;;3.97;0.40;;;8.30;99.90;;;;;;6243873;23;20142;-85
2023/03/15 12:31:54;;;;;;;5.88;0.50;;;8.30;99.90;;;;;;6244052;23;20004;-85
2023/03/15 12:34:56;;;;;;;9.65;1.00;;;8.40;99.90;;;;;;6244195;23;20441;-87
2023/03/15 12:37:42;;;;;;;6.35;0.40;;;8.50;99.90;;;;;;6236519;23;20339;-87
2023/03/15 12:40:14;;;;;;;6.35;0.40;;;8.50;99.90;;;;;;6243360;23;20075;-87
2023/03/15 12:42:42;;;;;;;8.27;0.50;;;8.60;99.90;;;;;;6244146;23;20405;-86
2023/03/15 12:45:38;;;;;;;3.08;0.30;;;8.70;99.90;;;;;;6244250;23;20011;-86
2023/03/15 12:48:05;;;;;;;6.35;0.30;;;8.70;99.90;;;;;;6229318;23;20020;-87
2023/03/15 12:50:43;;;;;;;3.63;0.50;;;8.80;99.90;;;;;;6243998;23;20025;-86
2023/03/15 12:53:30;;;;;;;4.30;0.47;;;8.80;99.90;;;;;;6243879;23;20004;-86
2023/03/15 12:56:10;;;;;;;8.57;0.40;;;8.80;99.90;;;;;;6243972;22;20023;-86
2023/03/15 12:58:37;;;;;;;4.45;0.30;;;8.80;99.90;;;;;;6244269;23;20004;-86
2023/03/15 13:01:06;;;;;;;4.95;0.45;;;8.90;99.90;;;;;;6241468;23;20007;-86
2023/03/15 13:03:34;;;;;;;2.97;0.50;;;8.90;99.90;;;;;;6243640;23;20023;-86